Time;durP1;ratioP1;P1;durP2;ratioP2;P2;SDS_P1;SDS_P2;PMS_P1;PMS_P2;Temp;Humidity;BMP_temperature;BMP_pressure;BME280_temperature;BME280_humidity;BME280_pressure;Samples;Min_cycle;Max_cycle;Signal;HPM_P1;HPM_P2
2022/11/14 00:02:30;;;;;;;289.17;47.85;;;;;;;3.41;84.52;101302.23;2098664;84;29478;-68
2022/11/14 00:05:32;;;;;;;143.10;45.23;;;;;;;3.38;84.49;101301.37;2098185;84;31086;-68
2022/11/14 00:08:34;;;;;;;141.28;45.23;;;;;;;3.36;84.51;101296.52;2098485;84;33119;-67
2022/11/14 00:11:36;;;;;;;251.12;44.70;;;;;;;3.38;84.67;101303.56;2098507;84;30121;-66
2022/11/14 00:14:38;;;;;;;244.30;45.85;;;;;;;3.37;84.63;101293.85;2099647;84;27744;-67
2022/11/14 00:17:39;;;;;;;185.70;43.80;;;;;;;3.35;84.56;101287.67;2113780;84;28702;-67
2022/11/14 00:20:41;;;;;;;259.87;42.23;;;;;;;3.34;84.53;101286.81;2114213;84;31233;-67
2022/11/14 00:23:43;;;;;;;138.18;45.03;;;;;;;3.31;84.41;101284.17;2114637;84;32980;-68
2022/11/14 00:26:44;;;;;;;154.47;46.00;;;;;;;3.31;84.48;101288.14;2114034;83;30139;-68
2022/11/14 00:29:46;;;;;;;165.60;43.33;;;;;;;3.30;84.51;101289.02;2114157;84;27622;-67
2022/11/14 00:32:48;;;;;;;208.50;41.13;;;;;;;3.31;84.59;101293.44;2114065;84;28791;-66
2022/11/14 00:35:54;;;;;;;271.18;45.00;;;;;;;3.31;84.49;101297.87;2114100;83;31808;-67
2022/11/14 00:38:55;;;;;;;246.80;47.35;;;;;;;3.25;84.37;101295.23;2114008;83;32966;-69
2022/11/14 00:41:57;;;;;;;196.70;47.20;;;;;;;3.21;84.46;101297.44;2114271;84;29391;-68
2022/11/14 00:44:58;;;;;;;111.40;42.93;;;;;;;3.21;84.55;101304.06;2114742;83;27673;-67
2022/11/14 00:48:00;;;;;;;207.75;44.27;;;;;;;3.23;84.73;101308.91;2114127;83;28632;-66
2022/11/14 00:51:02;;;;;;;127.75;43.63;;;;;;;3.21;84.62;101303.63;2114232;84;31099;-67
2022/11/14 00:54:04;;;;;;;139.15;44.40;;;;;;;3.21;84.65;101304.06;2113810;84;33022;-67
2022/11/14 00:57:05;;;;;;;154.03;41.92;;;;;;;3.19;84.69;101299.64;2114264;83;29408;-67
2022/11/14 01:00:09;;;;;;;133.90;41.95;;;;;;;3.22;84.78;101292.58;2114129;84;27744;-67
2022/11/14 01:03:11;;;;;;;116.00;37.75;;;;;;;3.21;84.76;101283.77;2113529;84;28815;-66
2022/11/14 01:06:14;;;;;;;195.25;43.20;;;;;;;3.18;84.69;101288.61;2113982;84;31163;-66
2022/11/14 01:09:16;;;;;;;152.50;39.38;;;;;;;3.16;84.78;101293.48;2113951;84;32959;-66
2022/11/14 01:12:17;;;;;;;136.07;37.93;;;;;;;3.15;84.95;101293.91;2114093;84;29370;-66
2022/11/14 01:15:19;;;;;;;122.20;41.30;;;;;;;3.16;85.07;101282.44;2111404;84;27175;-67
2022/11/14 01:18:21;;;;;;;120.15;41.58;;;;;;;3.18;85.14;101275.38;2098627;84;29542;-67
2022/11/14 01:21:22;;;;;;;202.03;43.35;;;;;;;3.20;85.10;101275.39;2098569;84;31138;-66
2022/11/14 01:24:24;;;;;;;204.55;42.67;;;;;;;3.19;85.26;101275.81;2098555;84;33698;-66
2022/11/14 01:27:26;;;;;;;145.12;43.73;;;;;;;3.17;85.35;101274.94;2098677;84;29331;-66
2022/11/14 01:30:27;;;;;;;138.97;42.50;;;;;;;3.17;85.39;101270.96;2102089;84;27829;-66
2022/11/14 01:33:29;;;;;;;128.75;44.25;;;;;;;3.18;85.54;101267.43;2098610;84;28835;-67
2022/11/14 01:36:30;;;;;;;223.03;45.52;;;;;;;3.21;85.52;101270.53;2098715;84;31017;-67
2022/11/14 01:39:32;;;;;;;134.30;49.95;;;;;;;3.23;85.59;101266.08;2099317;84;33645;-66
2022/11/14 01:42:33;;;;;;;210.90;50.33;;;;;;;3.23;85.57;101265.22;2098705;84;30122;-67
2022/11/14 01:45:58;;;;;;;185.40;51.37;;;;;;;3.23;85.63;101258.59;2098544;84;27630;-66
2022/11/14 01:49:05;;;;;;;148.93;56.33;;;;;;;3.23;85.68;101261.25;2098650;84;28825;-67
2022/11/14 01:52:29;;;;;;;166.10;51.95;;;;;;;3.25;85.71;101252.86;2097978;84;30979;-68
2022/11/14 01:55:31;;;;;;;123.07;54.63;;;;;;;3.26;85.86;101254.16;2098608;84;33110;-67
2022/11/14 01:58:36;;;;;;;200.18;54.98;;;;;;;3.26;85.82;101239.59;2098645;84;29334;-67
2022/11/14 02:01:51;;;;;;;119.70;40.90;;;;;;;3.31;85.89;101236.95;2098845;84;27700;-66
2022/11/14 02:05:10;;;;;;;156.87;52.73;;;;;;;3.32;85.98;101230.73;2098514;84;29603;-67
2022/11/14 02:08:13;;;;;;;205.98;56.55;;;;;;;3.32;85.96;101226.77;2098637;84;31029;-67
2022/11/14 02:11:15;;;;;;;147.45;56.37;;;;;;;3.33;86.01;101216.61;2098499;84;33816;-66
2022/11/14 02:14:17;;;;;;;185.85;56.70;;;;;;;3.32;86.07;101208.23;2098716;84;30107;-67
2022/11/14 02:17:19;;;;;;;209.87;58.10;;;;;;;3.34;86.09;101205.13;2109741;83;27771;-66
2022/11/14 02:20:27;;;;;;;130.52;53.83;;;;;;;3.37;86.18;101204.26;2114168;83;28826;-67
2022/11/14 02:23:30;;;;;;;177.78;52.20;;;;;;;3.39;86.12;101206.46;2114133;83;32030;-68
2022/11/14 02:26:31;;;;;;;163.97;54.03;;;;;;;3.40;86.06;101205.11;2114262;83;32930;-66
2022/11/14 02:29:34;;;;;;;131.12;56.25;;;;;;;3.40;86.09;101208.19;2114240;83;30082;-67
2022/11/14 02:32:35;;;;;;;163.55;54.65;;;;;;;3.37;86.01;101202.47;2114229;84;27695;-68
2022/11/14 02:35:37;;;;;;;118.05;51.05;;;;;;;3.39;86.09;101194.54;2114278;84;29387;-67
2022/11/14 02:38:39;;;;;;;151.53;53.50;;;;;;;3.38;86.18;101193.64;2114111;84;32002;-66
2022/11/14 02:41:40;;;;;;;136.25;54.58;;;;;;;3.38;86.10;101195.42;2114095;84;34020;-67
2022/11/14 02:44:42;;;;;;;132.15;56.35;;;;;;;3.36;86.09;101194.55;2113865;83;30462;-66
2022/11/14 02:47:44;;;;;;;131.22;56.48;;;;;;;3.34;86.11;101190.56;2114235;84;27667;-66
2022/11/14 02:50:48;;;;;;;137.52;60.95;;;;;;;3.34;86.14;101191.89;2114142;84;28638;-66
2022/11/14 02:53:49;;;;;;;125.22;52.08;;;;;;;3.37;86.21;101189.23;2114212;83;31678;-65
2022/11/14 02:56:51;;;;;;;108.83;52.33;;;;;;;3.42;86.35;101189.20;2114106;83;33723;-67
2022/11/14 02:59:53;;;;;;;105.52;51.10;;;;;;;3.41;86.21;101188.34;2114153;84;30111;-66
2022/11/14 03:02:54;;;;;;;126.78;50.40;;;;;;;3.44;86.31;101189.65;2114323;84;27621;-67
2022/11/14 03:06:01;;;;;;;124.97;50.45;;;;;;;3.46;86.47;101185.23;2114249;84;28856;-67
2022/11/14 03:09:03;;;;;;;107.07;48.08;;;;;;;3.45;86.39;101182.56;2114066;84;31809;-65
2022/11/14 03:12:05;;;;;;;122.40;50.73;;;;;;;3.45;86.60;101185.22;2114156;84;32953;-66
2022/11/14 03:15:08;;;;;;;128.72;52.67;;;;;;;3.44;86.44;101181.70;2114227;84;29357;-67
2022/11/14 03:18:09;;;;;;;108.42;52.95;;;;;;;3.43;86.60;101181.27;2100280;83;27701;-67
2022/11/14 03:21:15;;;;;;;106.22;50.00;;;;;;;3.43;86.64;101175.97;2098791;84;28699;-67
2022/11/14 03:24:17;;;;;;;103.40;49.05;;;;;;;3.45;86.76;101183.47;2098356;84;31887;-68
2022/11/14 03:27:19;;;;;;;107.90;47.55;;;;;;;3.47;86.78;101185.66;2098555;84;32935;-66
2022/11/14 03:30:21;;;;;;;109.87;48.98;;;;;;;3.49;87.11;101177.69;2098516;84;29331;-66
2022/11/14 03:33:23;;;;;;;109.50;47.50;;;;;;;3.49;86.94;101178.56;2098717;84;27598;-65
2022/11/14 03:36:24;;;;;;;106.32;45.43;;;;;;;3.53;87.11;101179.87;2098530;84;28646;-66
2022/11/14 03:39:26;;;;;;;105.05;47.67;;;;;;;3.55;87.18;101175.02;2098629;84;31009;-67
2022/11/14 03:42:28;;;;;;;126.33;49.65;;;;;;;3.58;87.15;101176.75;2098493;84;32954;-67
2022/11/14 03:45:32;;;;;;;112.37;48.52;;;;;;;3.62;87.17;101175.85;2098743;84;29472;-67
2022/11/14 03:48:34;;;;;;;103.47;48.63;;;;;;;3.66;87.20;101174.92;2098721;84;27705;-65
2022/11/14 03:51:35;;;;;;;115.20;48.80;;;;;;;3.68;87.26;101167.84;2098737;84;28775;-64
2022/11/14 03:54:37;;;;;;;126.22;48.42;;;;;;;3.73;87.27;101179.30;2098619;84;31863;-67
2022/11/14 03:57:39;;;;;;;129.50;50.20;;;;;;;3.78;87.34;101176.61;2098474;84;32959;-67
2022/11/14 04:00:41;;;;;;;133.35;50.85;;;;;;;3.82;87.29;101170.41;2098504;84;29484;-67
2022/11/14 04:03:42;;;;;;;113.85;46.42;;;;;;;3.87;87.38;101171.69;2098555;84;28297;-68
2022/11/14 04:06:44;;;;;;;105.85;45.38;;;;;;;3.89;87.37;101170.77;2098502;84;28626;-67
2022/11/14 04:09:46;;;;;;;112.62;49.03;;;;;;;3.94;87.44;101154.39;2098506;84;31980;-67
2022/11/14 04:12:53;;;;;;;112.08;49.42;;;;;;;4.00;87.45;101156.11;2098454;84;32936;-67
2022/11/14 04:15:56;;;;;;;112.15;47.70;;;;;;;4.05;87.48;101156.95;2098487;84;29323;-67
2022/11/14 04:18:58;;;;;;;116.40;48.52;;;;;;;4.10;87.54;101156.91;2098410;84;27698;-66
2022/11/14 04:21:59;;;;;;;110.63;47.27;;;;;;;4.10;87.48;101160.89;2098643;84;28694;-65
2022/11/14 04:25:01;;;;;;;121.65;50.73;;;;;;;4.11;87.46;101158.67;2098319;84;31086;-68
2022/11/14 04:28:02;;;;;;;145.32;49.73;;;;;;;4.13;87.51;101161.33;2098671;84;33081;-66
2022/11/14 04:31:04;;;;;;;123.97;48.48;;;;;;;4.16;87.52;101167.91;2098684;84;29368;-64
2022/11/14 04:34:06;;;;;;;111.37;50.00;;;;;;;4.18;87.62;101160.39;2098765;84;27576;-67
2022/11/14 04:37:08;;;;;;;125.27;47.75;;;;;;;4.20;87.49;101156.38;2098327;84;29724;-66
2022/11/14 04:40:10;;;;;;;104.58;48.17;;;;;;;4.22;87.52;101161.23;2098571;84;31023;-67
2022/11/14 04:43:11;;;;;;;106.05;47.83;;;;;;;4.25;87.51;101158.55;2098580;84;32958;-66
2022/11/14 04:46:13;;;;;;;106.83;48.28;;;;;;;4.27;87.50;101166.05;2098689;84;30090;-66
2022/11/14 04:49:15;;;;;;;105.45;47.67;;;;;;;4.32;87.55;101162.02;2098587;84;27601;-68
2022/11/14 04:52:16;;;;;;;108.37;46.85;;;;;;;4.34;87.43;101156.26;2098665;84;28640;-67
2022/11/14 04:55:18;;;;;;;99.58;45.90;;;;;;;4.35;87.50;101158.88;2098775;84;31840;-66
2022/11/14 04:58:19;;;;;;;109.20;48.73;;;;;;;4.35;87.37;101151.39;2098699;84;32949;-67
2022/11/14 05:01:21;;;;;;;121.53;50.90;;;;;;;4.36;87.32;101151.82;2098784;84;29324;-67
2022/11/14 05:04:22;;;;;;;125.12;48.33;;;;;;;4.37;87.38;101144.30;2098896;84;27595;-66
2022/11/14 05:07:24;;;;;;;110.25;49.10;;;;;;;4.38;87.41;101141.61;2078769;84;29486;-67
2022/11/14 05:10:25;;;;;;;109.85;48.58;;;;;;;4.39;87.39;101135.42;2098642;84;31820;-67
2022/11/14 05:13:30;;;;;;;130.65;45.28;;;;;;;4.42;87.37;101131.84;2098608;84;32937;-68
2022/11/14 05:16:31;;;;;;;110.20;48.65;;;;;;;4.43;87.47;101136.25;2098478;83;30126;-68
2022/11/14 05:19:33;;;;;;;108.30;44.90;;;;;;;4.42;87.32;101127.86;2098552;84;27667;-69
2022/11/14 05:22:36;;;;;;;105.07;48.95;;;;;;;4.42;87.49;101125.20;2098756;84;28646;-67
2022/11/14 05:25:38;;;;;;;112.77;48.15;;;;;;;4.42;87.40;101121.23;2098859;84;31431;-68
2022/11/14 05:28:40;;;;;;;112.28;48.15;;;;;;;4.41;87.46;101123.02;2098502;84;34174;-67
2022/11/14 05:31:41;;;;;;;116.95;48.87;;;;;;;4.44;87.42;101116.78;2098559;84;30291;-66
2022/11/14 05:34:43;;;;;;;116.17;48.65;;;;;;;4.45;87.42;101111.91;2098504;84;27693;-67
2022/11/14 05:37:45;;;;;;;107.97;46.20;;;;;;;4.46;87.38;101106.17;2098796;84;29475;-67
2022/11/14 05:40:46;;;;;;;110.08;49.38;;;;;;;4.48;87.43;101106.58;2098639;84;32134;-67
2022/11/14 05:43:48;;;;;;;100.30;45.92;;;;;;;4.46;87.38;101116.79;2098748;84;33669;-67
2022/11/14 05:46:50;;;;;;;102.45;46.42;;;;;;;4.44;87.43;101117.25;2098760;84;29317;-67
2022/11/14 05:49:51;;;;;;;119.40;49.67;;;;;;;4.43;87.41;101113.70;2098698;84;27811;-67
2022/11/14 05:52:53;;;;;;;107.05;48.70;;;;;;;4.43;87.39;101115.03;2098762;84;29480;-67
2022/11/14 05:55:55;;;;;;;114.77;48.23;;;;;;;4.45;87.51;101124.31;2098629;84;31040;-68
2022/11/14 05:58:56;;;;;;;107.92;46.77;;;;;;;4.48;87.52;101115.87;2098620;84;32960;-67
2022/11/14 06:01:58;;;;;;;89.85;43.00;;;;;;;4.52;87.52;101115.37;2098667;84;30157;-67
2022/11/14 06:04:59;;;;;;;91.45;43.40;;;;;;;4.51;87.45;101114.52;2098695;84;27654;-68
2022/11/14 06:08:02;;;;;;;94.65;43.52;;;;;;;4.48;87.38;101125.16;2098642;84;28824;-67
2022/11/14 06:11:13;;;;;;;84.50;41.48;;;;;;;4.47;87.33;101122.06;2098616;84;31034;-67
2022/11/14 06:14:14;;;;;;;90.75;42.90;;;;;;;4.47;87.36;101126.52;2098307;84;33170;-68
2022/11/14 06:17:16;;;;;;;96.45;43.25;;;;;;;4.47;87.37;101134.47;2098529;83;29470;-67
2022/11/14 06:20:18;;;;;;;85.72;40.38;;;;;;;4.49;87.43;101141.94;2098504;84;27650;-67
2022/11/14 06:23:20;;;;;;;83.87;41.18;;;;;;;4.51;87.42;101146.35;2098869;84;28620;-68
2022/11/14 06:26:30;;;;;;;81.32;41.13;;;;;;;4.54;87.37;101137.03;2098617;84;31034;-68
2022/11/14 06:29:32;;;;;;;91.97;42.27;;;;;;;4.56;87.39;101137.00;2098588;84;32383;-67
2022/11/14 06:32:33;;;;;;;97.25;41.63;;;;;;;4.59;87.40;101141.39;2098720;84;29390;-67
2022/11/14 06:35:35;;;;;;;95.10;44.10;;;;;;;4.61;87.35;101156.85;2098731;84;27639;-65
2022/11/14 06:38:39;;;;;;;101.97;47.00;;;;;;;4.59;87.22;101149.34;2098685;84;29073;-66
2022/11/14 06:41:40;;;;;;;92.75;44.73;;;;;;;4.59;87.27;101147.59;2098317;84;32049;-66
2022/11/14 06:44:42;;;;;;;103.83;47.50;;;;;;;4.60;87.36;101142.72;2098634;84;33811;-66
2022/11/14 06:47:44;;;;;;;95.38;46.75;;;;;;;4.61;87.40;101140.50;2098527;84;29728;-67
2022/11/14 06:50:54;;;;;;;94.62;46.68;;;;;;;4.60;87.43;101142.72;2098790;84;27625;-66
2022/11/14 06:53:55;;;;;;;96.75;47.05;;;;;;;4.62;87.43;101137.38;2098262;84;29905;-66
2022/11/14 06:56:57;;;;;;;91.78;44.00;;;;;;;4.65;87.49;101134.23;2102042;84;31964;-67
2022/11/14 06:59:59;;;;;;;90.55;44.55;;;;;;;4.67;87.44;101133.77;2098586;84;33923;-66
2022/11/14 07:03:00;;;;;;;81.30;41.02;;;;;;;4.70;87.53;101139.52;2098266;84;29448;-67
2022/11/14 07:06:04;;;;;;;84.52;39.45;;;;;;;4.69;87.48;101135.10;2098797;84;28231;-66
2022/11/14 07:09:05;;;;;;;88.20;43.42;;;;;;;4.70;87.46;101128.90;2098579;84;29725;-67
2022/11/14 07:12:08;;;;;;;82.33;40.52;;;;;;;4.72;87.50;101132.38;2098592;84;31458;-65
2022/11/14 07:15:10;;;;;;;84.55;42.30;;;;;;;4.76;87.61;101122.63;2098640;84;33334;-66
2022/11/14 07:18:12;;;;;;;84.25;41.55;;;;;;;4.82;87.62;101129.17;2098528;83;30065;-65
2022/11/14 07:21:14;;;;;;;91.53;43.50;;;;;;;4.87;87.63;101111.42;2098980;84;27670;-67
2022/11/14 07:24:15;;;;;;;94.13;45.03;;;;;;;4.90;87.52;101103.42;2098406;84;29972;-65
2022/11/14 07:27:17;;;;;;;84.58;40.88;;;;;;;4.94;87.58;101102.92;2098803;84;31021;-66
2022/11/14 07:30:22;;;;;;;94.67;44.03;;;;;;;4.98;87.63;101106.83;2098713;84;33354;-65
2022/11/14 07:33:24;;;;;;;89.80;42.88;;;;;;;5.05;87.64;101099.66;2098735;84;29403;-66
2022/11/14 07:36:26;;;;;;;80.65;40.52;;;;;;;5.11;87.63;101099.59;2098803;84;27656;-67
2022/11/14 07:39:27;;;;;;;80.47;41.45;;;;;;;5.19;87.75;101099.48;2098751;84;28633;-66
2022/11/14 07:42:30;;;;;;;92.75;42.58;;;;;;;5.19;87.47;101086.20;2098578;84;31252;-66
2022/11/14 07:45:32;;;;;;;93.27;43.42;;;;;;;5.21;87.46;101084.86;2098760;84;32966;-65
2022/11/14 07:48:34;;;;;;;85.80;42.93;;;;;;;5.26;87.48;101083.89;2098673;84;29469;-65
2022/11/14 07:51:37;;;;;;;89.22;43.45;;;;;;;5.30;87.50;101086.05;2098762;84;27668;-66
2022/11/14 07:54:38;;;;;;;84.90;41.33;;;;;;;5.39;87.55;101089.01;2099132;84;29010;-65
2022/11/14 07:57:40;;;;;;;88.27;43.90;;;;;;;5.45;87.44;101086.27;2101491;84;31378;-65
2022/11/14 08:00:42;;;;;;;88.55;43.73;;;;;;;5.50;87.29;101080.87;2142992;82;32926;-66
2022/11/14 08:03:43;;;;;;;85.25;43.25;;;;;;;5.51;87.25;101078.64;2143042;83;29756;-65
2022/11/14 08:06:45;;;;;;;86.70;41.45;;;;;;;5.55;87.23;101075.02;2142999;82;28232;-66
2022/11/14 08:09:47;;;;;;;82.17;39.00;;;;;;;5.60;87.26;101077.16;2143196;82;28646;-66
2022/11/14 08:12:59;;;;;;;71.62;36.95;;;;;;;5.65;87.27;101086.38;2142731;83;31033;-65
2022/11/14 08:16:09;;;;;;;80.55;40.67;;;;;;;5.67;87.16;101077.92;2141950;82;33269;-65
2022/11/14 08:19:11;;;;;;;79.92;40.85;;;;;;;5.71;87.14;101076.98;2146962;81;29337;-66
2022/11/14 08:22:13;;;;;;;77.95;41.37;;;;;;;5.73;87.07;101072.05;2149675;82;27783;-67
2022/11/14 08:25:14;;;;;;;80.40;41.40;;;;;;;5.76;87.00;101064.49;2149921;82;28631;-67
2022/11/14 08:28:16;;;;;;;83.17;40.08;;;;;;;5.77;86.95;101064.92;2149904;82;31021;-68
2022/11/14 08:31:18;;;;;;;77.47;41.30;;;;;;;5.85;87.23;101060.80;2149905;82;32971;-68
2022/11/14 08:34:21;;;;;;;82.08;42.53;;;;;;;5.91;87.08;101052.25;2149831;82;29300;-69
2022/11/14 08:37:22;;;;;;;72.12;39.08;;;;;;;5.96;86.86;101050.84;2150106;82;27641;-68
2022/11/14 08:40:24;;;;;;;76.75;38.78;;;;;;;5.99;86.79;101040.58;2149748;82;28628;-67
2022/11/14 08:43:26;;;;;;;72.82;39.65;;;;;;;6.02;86.67;101041.89;2149769;82;31173;-67
2022/11/14 08:46:28;;;;;;;75.92;40.90;;;;;;;6.06;86.67;101038.28;2149763;82;33206;-67
2022/11/14 08:49:30;;;;;;;76.02;39.95;;;;;;;6.13;86.84;101049.20;2149841;82;30168;-68
2022/11/14 08:52:31;;;;;;;77.37;38.98;;;;;;;6.20;86.78;101045.53;2150012;82;27610;-67
2022/11/14 08:55:33;;;;;;;77.30;39.08;;;;;;;6.27;86.67;101037.45;2150051;82;28622;-68
2022/11/14 08:58:35;;;;;;;74.22;41.05;;;;;;;6.30;86.56;101030.27;2149781;82;31011;-67
2022/11/14 09:01:36;;;;;;;80.25;42.40;;;;;;;6.34;86.36;101028.41;2149560;82;33163;-67
2022/11/14 09:04:38;;;;;;;81.97;43.68;;;;;;;6.38;86.33;101033.64;2149912;82;29319;-67
2022/11/14 09:07:39;;;;;;;74.47;41.35;;;;;;;6.41;86.15;101031.39;2149893;82;27711;-67
2022/11/14 09:10:41;;;;;;;72.75;40.05;;;;;;;6.45;86.11;101025.54;2149768;82;28641;-68
2022/11/14 09:13:42;;;;;;;76.62;40.83;;;;;;;6.48;85.97;101030.80;2149905;82;31014;-67
2022/11/14 09:16:48;;;;;;;75.62;40.75;;;;;;;6.52;85.81;101031.17;2149761;82;33692;-68
2022/11/14 09:19:50;;;;;;;76.30;40.65;;;;;;;6.53;85.72;101031.13;2173055;81;29376;-66
2022/11/14 09:22:52;;;;;;;65.52;37.00;;;;;;;6.53;85.47;101028.94;2204837;80;27654;-68
2022/11/14 09:25:55;;;;;;;73.37;40.90;;;;;;;6.52;85.19;101026.70;2204673;80;28633;-66
2022/11/14 09:28:57;;;;;;;77.12;39.75;;;;;;;6.48;85.35;101027.67;2204649;80;31070;-67
2022/11/14 09:31:59;;;;;;;75.65;40.83;;;;;;;6.50;85.44;101015.68;2204596;80;33870;-65
2022/11/14 09:35:00;;;;;;;77.40;41.05;;;;;;;6.55;85.50;101017.77;2204783;80;29305;-67
2022/11/14 09:38:09;;;;;;;77.60;41.68;;;;;;;6.56;85.47;101010.20;2204959;80;27674;-66
2022/11/14 09:41:26;;;;;;;80.03;42.67;;;;;;;6.61;85.60;101006.14;2204897;80;28653;-66
2022/11/14 09:44:48;;;;;;;79.27;43.48;;;;;;;6.66;85.56;101009.12;2183015;80;31018;-65
2022/11/14 09:48:04;;;;;;;89.92;45.65;;;;;;;6.75;85.61;101013.36;2205048;80;33048;-66
2022/11/14 09:51:16;;;;;;;74.35;42.45;;;;;;;6.82;85.55;101002.97;2204475;80;29379;-66
2022/11/14 09:54:26;;;;;;;81.50;44.03;;;;;;;6.83;84.88;100977.23;2205087;80;27785;-67
2022/11/14 09:57:28;;;;;;;77.40;41.48;;;;;;;6.89;85.23;100981.54;2204853;80;29724;-69
2022/11/14 10:00:47;;;;;;;75.52;40.52;;;;;;;6.98;85.40;100996.85;2204807;80;30930;-67
2022/11/14 10:03:54;;;;;;;68.37;39.13;;;;;;;7.11;85.57;100996.55;2204325;80;33735;-67
2022/11/14 10:07:16;;;;;;;72.60;41.75;;;;;;;7.25;85.35;100990.42;2200852;80;30760;-69
2022/11/14 10:10:26;;;;;;;76.37;40.55;;;;;;;7.34;85.33;100997.32;2204289;80;27684;-68
2022/11/14 10:13:58;;;;;;;69.25;40.60;;;;;;;7.47;85.29;100989.90;2204947;80;28824;-68
2022/11/14 10:17:41;;;;;;;74.22;41.33;;;;;;;7.59;85.19;100984.71;2204564;80;31745;-69
2022/11/14 10:20:56;;;;;;;71.10;42.20;;;;;;;7.69;84.62;100986.68;2201742;80;32937;-67
2022/11/14 10:24:09;;;;;;;72.40;42.55;;;;;;;7.75;84.66;100988.72;2202037;80;29345;-66
2022/11/14 10:27:21;;;;;;;74.25;43.25;;;;;;;7.84;84.19;100973.38;2200532;80;27716;-67
2022/11/14 10:30:23;;;;;;;67.08;40.52;;;;;;;7.87;84.14;100974.16;2202092;80;28869;-67
2022/11/14 10:34:00;;;;;;;75.15;43.05;;;;;;;7.95;84.03;100960.59;2201666;80;31070;-66
2022/11/14 10:37:33;;;;;;;66.90;41.08;;;;;;;8.05;84.17;100962.11;2123945;83;33100;-67
2022/11/14 10:40:51;;;;;;;73.07;42.33;;;;;;;8.17;84.23;100951.55;2090820;84;29336;-69
2022/11/14 10:43:54;;;;;;;70.62;40.88;;;;;;;8.30;84.11;100949.37;2075865;85;27723;-69
2022/11/14 10:47:03;;;;;;;72.30;42.25;;;;;;;8.50;84.34;100942.59;2076311;85;28643;-69
2022/11/14 10:50:18;;;;;;;68.05;40.00;;;;;;;8.66;84.02;100935.85;2075946;85;32041;-68
2022/11/14 10:53:40;;;;;;;67.12;41.75;;;;;;;8.82;83.91;100936.70;2076855;84;33936;-67
2022/11/14 10:56:49;;;;;;;68.92;41.35;;;;;;;8.93;83.26;100931.91;2076313;85;29481;-68
2022/11/14 10:59:52;;;;;;;70.20;41.73;;;;;;;9.09;83.60;100936.27;2076368;85;27896;-67
2022/11/14 11:02:56;;;;;;;71.57;38.50;;;;;;;9.22;83.50;100930.50;2076387;85;29901;-69
2022/11/14 11:05:58;;;;;;;68.87;42.90;;;;;;;9.25;82.81;100923.72;2076504;85;32054;-70
2022/11/14 11:12:50;;;;;;;73.25;43.75;;;;;;;9.36;82.93;100926.03;2113424;84;30105;-67
2022/11/14 11:15:54;;;;;;;71.40;43.33;;;;;;;9.43;82.71;100930.25;2085733;85;27659;-67
2022/11/14 11:19:24;;;;;;;71.62;42.43;;;;;;;9.39;81.84;100915.23;2184863;81;28662;-69
2022/11/14 11:22:37;;;;;;;70.40;42.50;;;;;;;9.24;81.30;100906.81;2181623;81;31058;-68
2022/11/14 11:25:39;;;;;;;81.45;46.35;;;;;;;9.17;81.34;100911.09;2152475;82;32984;-68
2022/11/14 11:28:41;;;;;;;74.12;44.38;;;;;;;9.10;81.68;100903.74;2113961;83;29341;-67
2022/11/14 11:31:55;;;;;;;78.42;44.60;;;;;;;9.08;81.56;100894.90;2114105;84;27673;-66
2022/11/14 11:34:57;;;;;;;75.87;44.55;;;;;;;9.04;81.40;100884.75;2114197;83;28708;-68
2022/11/14 11:38:01;;;;;;;75.50;45.78;;;;;;;9.00;81.54;100888.48;2114070;84;31852;-66
2022/11/14 11:41:17;;;;;;;77.03;45.70;;;;;;;8.99;81.74;100888.06;2114097;84;32470;-69
2022/11/14 11:44:19;;;;;;;72.27;43.90;;;;;;;8.99;81.70;100884.05;2114197;83;29489;-68
2022/11/14 11:47:21;;;;;;;77.15;44.40;;;;;;;9.00;81.74;100871.55;2114219;84;27721;-68
2022/11/14 11:50:23;;;;;;;73.62;45.03;;;;;;;9.02;81.89;100867.03;2113832;83;28885;-67
2022/11/14 11:53:42;;;;;;;73.22;44.83;;;;;;;9.05;81.98;100862.92;2114095;84;32015;-66
2022/11/14 11:56:46;;;;;;;75.00;45.75;;;;;;;9.08;82.01;100864.16;2116612;83;32967;-67
2022/11/14 11:59:53;;;;;;;81.08;46.18;;;;;;;9.14;82.15;100861.26;2156773;82;34682;-66
2022/11/14 12:02:54;;;;;;;74.58;44.85;;;;;;;9.18;82.14;100863.38;2156801;82;27687;-66
2022/11/14 12:06:24;;;;;;;74.80;45.58;;;;;;;9.23;82.03;100859.62;2156733;82;28650;-68
2022/11/14 12:09:38;;;;;;;72.90;42.80;;;;;;;9.26;81.95;100854.62;2156630;82;31036;-69
2022/11/14 12:12:45;;;;;;;68.87;42.85;;;;;;;9.32;82.01;100846.39;2135406;82;33731;-68
2022/11/14 12:15:58;;;;;;;67.05;40.33;;;;;;;9.37;81.98;100840.87;2182194;81;29330;-67
2022/11/14 12:19:29;;;;;;;65.12;39.13;;;;;;;9.41;81.75;100835.34;2153794;82;27698;-68
2022/11/14 12:22:59;;;;;;;65.52;40.73;;;;;;;9.45;81.71;100829.89;2134290;83;28749;-67
2022/11/14 12:26:11;;;;;;;61.58;37.58;;;;;;;9.50;81.55;100827.94;2134190;83;31054;-68
2022/11/14 12:29:45;;;;;;;60.78;37.70;;;;;;;9.55;81.59;100829.50;2114964;83;32962;-68
2022/11/14 12:32:59;;;;;;;59.03;37.78;;;;;;;9.60;81.42;100836.50;2134001;83;30111;-69
2022/11/14 12:36:05;;;;;;;61.48;37.63;;;;;;;9.64;81.38;100832.75;2133632;83;27650;-69
2022/11/14 12:39:12;;;;;;;63.05;39.65;;;;;;;9.69;81.27;100826.77;2134079;83;29448;-69
2022/11/14 12:42:18;;;;;;;61.30;38.60;;;;;;;9.71;81.02;100819.57;2131840;83;31021;-68
2022/11/14 12:45:45;;;;;;;62.38;38.40;;;;;;;9.75;80.99;100815.86;2133736;83;33742;-68
2022/11/14 12:48:47;;;;;;;62.10;38.10;;;;;;;9.78;81.10;100804.16;2134240;83;29343;-69
2022/11/14 12:51:50;;;;;;;63.92;40.00;;;;;;;9.82;80.82;100805.31;2134256;83;27718;-68
2022/11/14 12:54:52;;;;;;;62.78;39.15;;;;;;;9.85;80.68;100808.32;2134095;83;28642;-68
2022/11/14 12:58:10;;;;;;;60.63;37.67;;;;;;;9.88;80.82;100809.09;2134078;83;30980;-69
2022/11/14 13:01:35;;;;;;;63.58;39.05;;;;;;;9.92;80.75;100811.66;2134234;83;33000;-68
2022/11/14 13:04:45;;;;;;;65.78;38.15;;;;;;;9.94;80.60;100806.64;2134418;83;29382;-69
2022/11/14 13:08:44;;;;;;;65.75;38.05;;;;;;;9.95;80.39;100799.02;2133799;83;27726;-70
2022/11/14 13:22:45;;;;;;;61.40;38.13;;;;;;;10.03;80.17;100790.21;2141534;83;29579;-69
2022/11/14 13:25:47;;;;;;;62.13;38.95;;;;;;;10.06;80.34;100782.99;2138590;82;27695;-67
2022/11/14 13:28:52;;;;;;;58.08;37.05;;;;;;;10.07;80.04;100786.97;2138444;83;29481;-68
2022/11/14 13:31:54;;;;;;;63.33;37.25;;;;;;;10.07;80.11;100780.28;2138387;83;30992;-69
2022/11/14 13:35:03;;;;;;;61.85;38.63;;;;;;;10.10;79.98;100775.25;2138462;83;33097;-67
2022/11/14 13:38:25;;;;;;;61.95;37.35;;;;;;;10.11;79.96;100769.83;2138502;83;29499;-69
2022/11/14 13:42:06;;;;;;;55.33;35.92;;;;;;;10.12;80.02;100771.57;2138650;83;27682;-68
2022/11/14 13:45:28;;;;;;;56.68;35.78;;;;;;;10.15;79.98;100770.59;2137668;83;28710;-68
2022/11/14 13:49:01;;;;;;;55.15;35.78;;;;;;;10.15;79.94;100770.11;2138564;83;31094;-69
2022/11/14 13:52:04;;;;;;;60.73;37.55;;;;;;;10.16;79.97;100769.18;2138423;83;32966;-68
2022/11/14 13:55:06;;;;;;;58.45;36.17;;;;;;;10.17;79.89;100758.02;2138179;83;29549;-68
2022/11/14 13:58:39;;;;;;;55.95;36.30;;;;;;;10.16;79.82;100753.13;2138560;83;27689;-68
2022/11/14 14:02:12;;;;;;;56.02;35.68;;;;;;;10.17;79.84;100748.66;2137853;83;28738;-68
2022/11/14 14:05:46;;;;;;;56.95;35.88;;;;;;;10.17;79.84;100752.67;2141675;82;31812;-69
2022/11/14 14:09:11;;;;;;;54.80;34.88;;;;;;;10.18;79.79;100755.27;2138575;83;32967;-68
2022/11/14 14:12:39;;;;;;;63.70;39.20;;;;;;;10.18;79.72;100749.03;2138959;83;29425;-69
2022/11/14 14:15:58;;;;;;;59.93;36.55;;;;;;;10.16;79.72;100742.41;2033620;87;27826;-68
2022/11/14 14:19:52;;;;;;;56.02;34.50;;;;;;;10.15;79.71;100739.81;2050955;86;28738;-67
2022/11/14 14:23:31;;;;;;;59.25;35.68;;;;;;;10.14;79.65;100738.92;2064861;86;31082;-68
2022/11/14 14:26:59;;;;;;;52.35;33.90;;;;;;;10.12;79.72;100727.88;2065180;86;34022;-68
2022/11/14 14:30:18;;;;;;;60.52;34.75;;;;;;;10.09;79.62;100730.23;2065096;86;30136;-69